Thalassa — FNFP — position and weather

sailwx.info

Track history (hours):
 
Tides and Currents Weather Stations Pressure Air Temp Water Temp Dewpoint Dewpoint Depression Visibility Wind Speed Wind Dir Waves Ship Positions

Oceanographic research ship Thalassa (France & Spain)

Detailed information on ship capabilities available from University of Delaware's Ocean Information Center.

Last reported at 2016-Feb-06 22:06 UTC. Time now 2016-Feb-07 06:03 UTC.
Position N 53°09' E 004°13'.

Length 74 m; beam 15 m.

Type: Ship. MMSI: 227297000.

Date/timePositionNaut miles runAvg speedWind from/ knotsBaromVisibWave heightAir tempDewpointWater temp
2016-Feb-06 22:06N 53°09' E 004°13'611.5
2016-Feb-06 21:33N 53°03' E 004°16'1111.4
2016-Feb-06 20:33N 52°52' E 004°21'1 1.2
2016-Feb-06 19:33N 52°51' E 004°22'7 6.8
2016-Feb-06 18:33N 52°45' E 004°17'4 4.3
2016-Feb-06 17:33N 52°42' E 004°13'2 1.8
2016-Feb-06 16:33N 52°43' E 004°14'1 0.9
2016-Feb-06 15:33N 52°43' E 004°13'9 4.2
2016-Feb-06 13:28N 52°50' E 004°06'9 3.0
2016-Feb-06 10:33N 52°43' E 003°58'1211.7
2016-Feb-06 09:33N 52°31' E 004°00'1111.4
2016-Feb-06 08:33N 52°20' E 004°06'1211.7
2016-Feb-06 07:33N 52°10' E 004°13'4 4.0
2016-Feb-06 06:33N 52°06' E 004°16'0 0.0
2016-Feb-06 05:33N 52°06' E 004°16'0 0.0
2016-Feb-06 04:33N 52°06' E 004°16'0 0.0
2016-Feb-06 03:33N 52°06' E 004°16'0 0.0
2016-Feb-06 02:34N 52°06' E 004°16'0 0.0
2016-Feb-06 01:34N 52°06' E 004°16'0 0.0
2016-Feb-06 00:34N 52°06' E 004°16'0 0.0
2016-Feb-05 23:34N 52°06' E 004°16'0 0.0
2016-Feb-05 22:34N 52°06' E 004°16'0 0.0
2016-Feb-05 21:33N 52°06' E 004°16'0 0.0
2016-Feb-05 20:33N 52°06' E 004°16'0 0.0
2016-Feb-05 19:34N 52°06' E 004°16'0 0.0
2016-Feb-05 18:33N 52°06' E 004°16'0 0.0
2016-Feb-05 17:34N 52°06' E 004°16'0 0.0
2016-Feb-05 16:34N 52°06' E 004°16'0 0.0
2016-Feb-05 15:34N 52°06' E 004°16'0 0.0
2016-Feb-05 14:34N 52°06' E 004°16'0 0.0
2016-Feb-05 13:34N 52°06' E 004°16'0 0.0
2016-Feb-05 12:33N 52°06' E 004°16'0 0.0
2016-Feb-05 11:34N 52°06' E 004°16'0 0.0
2016-Feb-05 10:34N 52°06' E 004°16'0 0.0
2016-Feb-05 09:33N 52°06' E 004°16'0 0.0
2016-Feb-05 08:31N 52°06' E 004°16'0 0.0
2016-Feb-05 07:31N 52°06' E 004°16'0 0.0
2016-Feb-05 06:31N 52°06' E 004°16'0 0.0
2016-Feb-05 05:31N 52°06' E 004°16'0 0.0
2016-Feb-05 04:31N 52°06' E 004°16'0 0.0
2016-Feb-05 03:34N 52°06' E 004°16'0 0.0
2016-Feb-05 02:34N 52°06' E 004°16'0 0.0
2016-Feb-05 01:34N 52°06' E 004°16'0 0.0
2016-Feb-05 00:34N 52°06' E 004°16'0 0.0
2016-Feb-04 23:33N 52°06' E 004°16'0 0.0
2016-Feb-04 22:33N 52°06' E 004°16'0 0.0
2016-Feb-04 21:33N 52°06' E 004°16'0 0.0
2016-Feb-04 20:33N 52°06' E 004°16'0 0.0
2016-Feb-04 19:33N 52°06' E 004°16'0 0.0
2016-Feb-04 18:33N 52°06' E 004°16'0 0.0
2016-Feb-04 17:33N 52°06' E 004°16'0 0.0
2016-Feb-04 16:33N 52°06' E 004°16'9 8.7
2016-Feb-04 15:33N 52°06' E 004°02'5 4.7
2016-Feb-04 14:33N 52°03' E 003°55'7 7.1
2016-Feb-04 13:33N 52°07' E 004°04'10 9.5
2016-Feb-04 12:33N 52°14' E 004°15'7 6.5
2016-Feb-04 11:33N 52°18' E 004°24'1 1.1
2016-Feb-04 10:33N 52°19' E 004°23'1212.0
2016-Feb-04 09:33N 52°23' E 004°05'9 8.6
2016-Feb-04 08:31N 52°29' E 003°54'1 1.1
2016-Feb-04 07:33N 52°28' E 003°54'1 1.4
2016-Feb-04 06:33N 52°29' E 003°54'93 2.0
2016-Feb-02 07:05N 53°56' E 004°50'3 5.5
2016-Feb-02 06:33N 53°59' E 004°52'5 5.4
2016-Feb-02 05:33N 54°04' E 004°57'5 5.1
2016-Feb-02 04:34N 54°08' E 005°00'5 5.0
2016-Feb-02 03:32N 54°13' E 005°04'5 4.7
2016-Feb-02 02:33N 54°17' E 005°08'58 2.5
2016-Feb-01 03:03N 54°04' E 006°44'0 0.0
2016-Feb-01 02:31N 54°04' E 006°44'0 0.0
2016-Feb-01 01:32N 54°04' E 006°44'9 8.8
2016-Feb-01 00:33N 53°55' E 006°45'2 2.0
2016-Jan-31 23:33N 53°55' E 006°49'9 9.5
2016-Jan-31 22:33N 53°56' E 007°05'2 2.1
2016-Jan-31 21:33N 53°55' E 007°08'9 9.0
2016-Jan-31 20:33N 54°04' E 007°07'7 6.9
2016-Jan-31 19:33N 54°11' E 007°06'4 4.1
2016-Jan-31 18:33N 54°14' E 007°10'7 7.0
2016-Jan-31 17:33N 54°21' E 007°12'3 3.1
2016-Jan-31 16:33N 54°17' E 007°11'1 1.0
2016-Jan-31 15:33N 54°17' E 007°13'5 4.6
2016-Jan-31 14:33N 54°13' E 007°17'9 9.5
2016-Jan-31 13:33N 54°04' E 007°22'9 8.3
2016-Jan-31 12:31N 53°56' E 007°26'2 1.9
2016-Jan-31 11:33N 53°57' E 007°28'6 6.5
2016-Jan-31 10:33N 54°00' E 007°38'9 8.9
2016-Jan-31 09:34N 54°04' E 007°51'1010.2
2016-Jan-31 08:34N 54°13' E 008°00'6 6.2
2016-Jan-31 07:33N 54°18' E 008°05'1 1.5
2016-Jan-31 06:33N 54°19' E 008°03'5 4.9
2016-Jan-31 05:34N 54°19' E 007°55'3 2.6
2016-Jan-31 04:34N 54°20' E 007°50'2 1.6
2016-Jan-31 03:33N 54°21' E 007°52'1 0.6
2016-Jan-31 02:33N 54°21' E 007°53'1 1.4
2016-Jan-31 01:33N 54°19' E 007°53'1 0.5
2016-Jan-31 00:33N 54°20' E 007°52'2 1.9
2016-Jan-30 23:33N 54°22' E 007°53'2 2.1
2016-Jan-30 22:33N 54°23' E 007°54'7 7.3
2016-Jan-30 21:34N 54°31' E 007°56'1111.4
2016-Jan-30 20:33N 54°41' E 007°47'13 4.3
2016-Jan-30 17:27N 54°53' E 007°56'3 3.6
2016-Jan-30 16:33N 54°54' E 008°01'10 3.3
2016-Jan-30 13:27N 55°04' E 007°56'1112.2
2016-Jan-30 12:34N 55°11' E 007°41'5 5.2
2016-Jan-30 11:33N 55°15' E 007°35'1 1.1
2016-Jan-30 10:33N 55°15' E 007°37'10 9.9
2016-Jan-30 09:33N 55°08' E 007°25'1211.4
2016-Jan-30 08:33N 54°60' E 007°11'7 6.7
2016-Jan-30 07:33N 54°55' E 007°02'1 1.1
2016-Jan-30 06:33N 54°55' E 007°00'1 1.0
2016-Jan-30 05:33N 54°56' E 007°01'1 1.2
2016-Jan-30 04:33N 54°56' E 007°03'8 7.6
2016-Jan-30 03:33N 54°53' E 006°50'4 3.5
2016-Jan-30 02:31N 54°52' E 006°44'4 4.2
2016-Jan-30 01:31N 54°52' E 006°37'  
Track history (hours):
 
Tides and Currents Weather Stations Pressure Air Temp Water Temp Dewpoint Dewpoint Depression Visibility Wind Speed Wind Dir Waves Ship Positions

Oceanographic research ship Thalassa (France & Spain)

Detailed information on ship capabilities available from University of Delaware's Ocean Information Center.

Last reported at 2016-Feb-06 22:06 UTC. Time now 2016-Feb-07 06:03 UTC.
Position N 53°09' E 004°13'.

Length 74 m; beam 15 m.

Type: Ship. MMSI: 227297000.

Date/timePositionNaut miles runAvg speedWind from/ knotsBaromVisibWave heightAir tempDewpointWater temp
2016-Feb-06 22:06N 53°09' E 004°13'611.5
2016-Feb-06 21:33N 53°03' E 004°16'1111.4
2016-Feb-06 20:33N 52°52' E 004°21'1 1.2
2016-Feb-06 19:33N 52°51' E 004°22'7 6.8
2016-Feb-06 18:33N 52°45' E 004°17'4 4.3
2016-Feb-06 17:33N 52°42' E 004°13'2 1.8
2016-Feb-06 16:33N 52°43' E 004°14'1 0.9
2016-Feb-06 15:33N 52°43' E 004°13'9 4.2
2016-Feb-06 13:28N 52°50' E 004°06'9 3.0
2016-Feb-06 10:33N 52°43' E 003°58'1211.7
2016-Feb-06 09:33N 52°31' E 004°00'1111.4
2016-Feb-06 08:33N 52°20' E 004°06'1211.7
2016-Feb-06 07:33N 52°10' E 004°13'4 4.0
2016-Feb-06 06:33N 52°06' E 004°16'0 0.0
2016-Feb-06 05:33N 52°06' E 004°16'0 0.0
2016-Feb-06 04:33N 52°06' E 004°16'0 0.0
2016-Feb-06 03:33N 52°06' E 004°16'0 0.0
2016-Feb-06 02:34N 52°06' E 004°16'0 0.0
2016-Feb-06 01:34N 52°06' E 004°16'0 0.0
2016-Feb-06 00:34N 52°06' E 004°16'0 0.0
2016-Feb-05 23:34N 52°06' E 004°16'0 0.0
2016-Feb-05 22:34N 52°06' E 004°16'0 0.0
2016-Feb-05 21:33N 52°06' E 004°16'0 0.0
2016-Feb-05 20:33N 52°06' E 004°16'0 0.0
2016-Feb-05 19:34N 52°06' E 004°16'0 0.0
2016-Feb-05 18:33N 52°06' E 004°16'0 0.0
2016-Feb-05 17:34N 52°06' E 004°16'0 0.0
2016-Feb-05 16:34N 52°06' E 004°16'0 0.0
2016-Feb-05 15:34N 52°06' E 004°16'0 0.0
2016-Feb-05 14:34N 52°06' E 004°16'0 0.0
2016-Feb-05 13:34N 52°06' E 004°16'0 0.0
2016-Feb-05 12:33N 52°06' E 004°16'0 0.0
2016-Feb-05 11:34N 52°06' E 004°16'0 0.0
2016-Feb-05 10:34N 52°06' E 004°16'0 0.0
2016-Feb-05 09:33N 52°06' E 004°16'0 0.0
2016-Feb-05 08:31N 52°06' E 004°16'0 0.0
2016-Feb-05 07:31N 52°06' E 004°16'0 0.0
2016-Feb-05 06:31N 52°06' E 004°16'0 0.0
2016-Feb-05 05:31N 52°06' E 004°16'0 0.0
2016-Feb-05 04:31N 52°06' E 004°16'0 0.0
2016-Feb-05 03:34N 52°06' E 004°16'0 0.0
2016-Feb-05 02:34N 52°06' E 004°16'0 0.0
2016-Feb-05 01:34N 52°06' E 004°16'0 0.0
2016-Feb-05 00:34N 52°06' E 004°16'0 0.0
2016-Feb-04 23:33N 52°06' E 004°16'0 0.0
2016-Feb-04 22:33N 52°06' E 004°16'0 0.0
2016-Feb-04 21:33N 52°06' E 004°16'0 0.0
2016-Feb-04 20:33N 52°06' E 004°16'0 0.0
2016-Feb-04 19:33N 52°06' E 004°16'0 0.0
2016-Feb-04 18:33N 52°06' E 004°16'0 0.0
2016-Feb-04 17:33N 52°06' E 004°16'0 0.0
2016-Feb-04 16:33N 52°06' E 004°16'9 8.7
2016-Feb-04 15:33N 52°06' E 004°02'5 4.7
2016-Feb-04 14:33N 52°03' E 003°55'7 7.1
2016-Feb-04 13:33N 52°07' E 004°04'10 9.5
2016-Feb-04 12:33N 52°14' E 004°15'7 6.5
2016-Feb-04 11:33N 52°18' E 004°24'1 1.1
2016-Feb-04 10:33N 52°19' E 004°23'1212.0
2016-Feb-04 09:33N 52°23' E 004°05'9 8.6
2016-Feb-04 08:31N 52°29' E 003°54'1 1.1
2016-Feb-04 07:33N 52°28' E 003°54'1 1.4
2016-Feb-04 06:33N 52°29' E 003°54'93 2.0
2016-Feb-02 07:05N 53°56' E 004°50'3 5.5
2016-Feb-02 06:33N 53°59' E 004°52'5 5.4
2016-Feb-02 05:33N 54°04' E 004°57'5 5.1
2016-Feb-02 04:34N 54°08' E 005°00'5 5.0
2016-Feb-02 03:32N 54°13' E 005°04'5 4.7
2016-Feb-02 02:33N 54°17' E 005°08'58 2.5
2016-Feb-01 03:03N 54°04' E 006°44'0 0.0
2016-Feb-01 02:31N 54°04' E 006°44'0 0.0
2016-Feb-01 01:32N 54°04' E 006°44'9 8.8
2016-Feb-01 00:33N 53°55' E 006°45'2 2.0
2016-Jan-31 23:33N 53°55' E 006°49'9 9.5
2016-Jan-31 22:33N 53°56' E 007°05'2 2.1
2016-Jan-31 21:33N 53°55' E 007°08'9 9.0
2016-Jan-31 20:33N 54°04' E 007°07'7 6.9
2016-Jan-31 19:33N 54°11' E 007°06'4 4.1
2016-Jan-31 18:33N 54°14' E 007°10'7 7.0
2016-Jan-31 17:33N 54°21' E 007°12'3 3.1
2016-Jan-31 16:33N 54°17' E 007°11'1 1.0
2016-Jan-31 15:33N 54°17' E 007°13'5 4.6
2016-Jan-31 14:33N 54°13' E 007°17'9 9.5
2016-Jan-31 13:33N 54°04' E 007°22'9 8.3
2016-Jan-31 12:31N 53°56' E 007°26'2 1.9
2016-Jan-31 11:33N 53°57' E 007°28'6 6.5
2016-Jan-31 10:33N 54°00' E 007°38'9 8.9
2016-Jan-31 09:34N 54°04' E 007°51'1010.2
2016-Jan-31 08:34N 54°13' E 008°00'6 6.2
2016-Jan-31 07:33N 54°18' E 008°05'1 1.5
2016-Jan-31 06:33N 54°19' E 008°03'5 4.9
2016-Jan-31 05:34N 54°19' E 007°55'3 2.6
2016-Jan-31 04:34N 54°20' E 007°50'2 1.6
2016-Jan-31 03:33N 54°21' E 007°52'1 0.6
2016-Jan-31 02:33N 54°21' E 007°53'1 1.4
2016-Jan-31 01:33N 54°19' E 007°53'1 0.5
2016-Jan-31 00:33N 54°20' E 007°52'2 1.9
2016-Jan-30 23:33N 54°22' E 007°53'2 2.1
2016-Jan-30 22:33N 54°23' E 007°54'7 7.3
2016-Jan-30 21:34N 54°31' E 007°56'1111.4
2016-Jan-30 20:33N 54°41' E 007°47'13 4.3
2016-Jan-30 17:27N 54°53' E 007°56'3 3.6
2016-Jan-30 16:33N 54°54' E 008°01'10 3.3
2016-Jan-30 13:27N 55°04' E 007°56'1112.2
2016-Jan-30 12:34N 55°11' E 007°41'5 5.2
2016-Jan-30 11:33N 55°15' E 007°35'1 1.1
2016-Jan-30 10:33N 55°15' E 007°37'10 9.9
2016-Jan-30 09:33N 55°08' E 007°25'1211.4
2016-Jan-30 08:33N 54°60' E 007°11'7 6.7
2016-Jan-30 07:33N 54°55' E 007°02'1 1.1
2016-Jan-30 06:33N 54°55' E 007°00'1 1.0
2016-Jan-30 05:33N 54°56' E 007°01'1 1.2
2016-Jan-30 04:33N 54°56' E 007°03'8 7.6
2016-Jan-30 03:33N 54°53' E 006°50'4 3.5
2016-Jan-30 02:31N 54°52' E 006°44'4 4.2
2016-Jan-30 01:31N 54°52' E 006°37'  

Dump ship's entire track history